This is the latest recevied weather packets stored in our database for station/object KD8NVS-13. If no packets are shown the sender has not sent any weather packets the latest 10 day(s).
| Time | Temp. | Humidity | Pressure | Rain* | Wind** | Luminosity | Snow |
|---|---|---|---|---|---|---|---|
| 1777603707 | 5.56° C | 90% | 1005.9 hPa | 0 mm | - | 0 W/m² | - |
| 1777603404 | 5.56° C | 90% | 1005.5 hPa | 0 mm | - | 0 W/m² | - |
| 1777603099 | 5.56° C | 89% | 1005.5 hPa | 0 mm | - | 0 W/m² | - |
| 1777602794 | 5.56° C | 88% | 1005.9 hPa | 0 mm | - | 0 W/m² | - |
| 1777602489 | 5.56° C | 88% | 1005.9 hPa | 0 mm | - | 0 W/m² | - |
| 1777602186 | 5.56° C | 88% | 1005.9 hPa | 0 mm | - | 0 W/m² | - |
| 1777601881 | 6.11° C | 87% | 1005.5 hPa | 0 mm | - | 0 W/m² | - |
| 1777601576 | 6.11° C | 87% | 1005.5 hPa | 0 mm | - | 0 W/m² | - |
| 1777601271 | 6.67° C | 85% | 1005.5 hPa | 0 mm | - | 0 W/m² | - |
| 1777600969 | 6.67° C | 84% | 1005.5 hPa | 0 mm | - | 0 W/m² | - |
| 1777600665 | 6.67° C | 84% | 1005.9 hPa | 0 mm | - | 0 W/m² | - |
| 1777600361 | 6.67° C | 83% | 1005.5 hPa | 0 mm | - | 0 W/m² | - |
| 1777600057 | 7.22° C | 82% | 1005.2 hPa | 0 mm | - | 0 W/m² | - |
| 1777599753 | 7.22° C | 79% | 1005.5 hPa | 0 mm | - | 0 W/m² | - |
| 1777599449 | 7.22° C | 79% | 1005.2 hPa | 0 mm | - | 0 W/m² | - |
| 1777599147 | 7.22° C | 78% | 1005.2 hPa | 0 mm | - | 0 W/m² | - |
| 1777598845 | 7.78° C | 77% | 1005.2 hPa | 0 mm | - | 0 W/m² | - |
| 1777598540 | 7.78° C | 78% | 1005.5 hPa | 0 mm | - | 0 W/m² | - |
| 1777598235 | 8.33° C | 77% | 1005.2 hPa | 0 mm | - | 0 W/m² | - |
| 1777597933 | 8.89° C | 75% | 1004.9 hPa | 0 mm | - | 0 W/m² | - |
| 1777597633 | 8.89° C | 71% | 1005.2 hPa | 0 mm | - | 0 W/m² | - |
| 1777597328 | 9.44° C | 68% | 1005.2 hPa | 0 mm | - | 0 W/m² | - |
| 1777597023 | 10.56° C | 59% | 1005.2 hPa | 0 mm | - | 0 W/m² | - |
| 1777596721 | 10.56° C | 58% | 1005.2 hPa | 0 mm | - | 0 W/m² | - |
| 1777596417 | 11.11° C | 55% | 1004.9 hPa | 0 mm | - | 0 W/m² | - |
* Rain latest hour (hover to see other rain measurements)
** Current wind speed in m/s (hover to see current wind gust speed)